Check out our new BloomSky Weather System.

Active alerts

Houston, TX
  Details for Houston, TX Dense Fog Advisory


Thunder radar  blitzortung!


Rain radar more information rain snow radar


Visit our other weather sites:

Template documentation
and downloads

And another site



Weather Underground History page Text

Daily Summary for January 2, 2017 Units:  English    Metric   Both
« Previous Day
Next Day »
Daily Weekly Monthly Yearly Custom
  High: Low: Average:
Temperature: 74.8 °F 53.2 °F 65.7 °F
Dew Point: 71.6 °F 51.6 °F 60.8 °F
Humidity: 99 % 52 % 86 %
Wind Speed: 19.0 mph 0.0 mph 1.5 mph
Wind Gust: 29.0 mph - -
Wind:- - SW
Pressure: 29.94 in 29.73 in -
Precipitation: 1.87 in    
Historical Graphs
 
 
Tabular Data for January 2, 2017
Time Temperature Dew Point Pressure Wind Wind Speed Wind Gust Humidity Rainfall Rate (Hourly)
00:02 66.4 °F 65.5 °F 29.84 in Calm   1.0 mph 97 % 0.00 in
00:07 66.6 °F 66.0 °F 29.83 in Calm   1.0 mph 98 % 0.00 in
00:12 66.6 °F 66.0 °F 29.83 in Calm   1.0 mph 98 % 0.00 in
00:17 66.7 °F 66.2 °F 29.84 in Calm   1.0 mph 98 % 0.00 in
00:22 66.7 °F 66.2 °F 29.84 in Calm   1.0 mph 98 % 0.00 in
00:27 66.7 °F 66.2 °F 29.83 in Calm   1.0 mph 98 % 0.00 in
00:32 66.9 °F 66.4 °F 29.83 in Calm   1.0 mph 98 % 0.00 in
00:37 67.1 °F 66.6 °F 29.83 in Calm   3.0 mph 98 % 0.00 in
00:42 67.3 °F 66.7 °F 29.83 in Calm   3.0 mph 98 % 0.00 in
00:47 67.3 °F 66.7 °F 29.83 in East 1.0 mph 3.0 mph 98 % 0.00 in
00:52 67.3 °F 66.7 °F 29.83 in Calm   3.0 mph 98 % 0.00 in
00:57 67.3 °F 66.7 °F 29.83 in East 2.0 mph 3.0 mph 98 % 0.00 in
01:02 67.5 °F 66.9 °F 29.83 in Calm   3.0 mph 98 % 0.00 in
01:07 67.5 °F 66.9 °F 29.83 in Calm   3.0 mph 98 % 0.00 in
01:12 67.5 °F 66.9 °F 29.83 in Calm   3.0 mph 98 % 0.00 in
01:17 67.5 °F 66.9 °F 29.82 in Calm   2.0 mph 98 % 0.00 in
01:22 67.6 °F 67.1 °F 29.82 in East 1.0 mph 4.0 mph 98 % 0.00 in
01:27 67.6 °F 67.1 °F 29.82 in Calm   4.0 mph 98 % 0.00 in
01:32 67.6 °F 67.1 °F 29.82 in ENE 1.0 mph 4.0 mph 98 % 0.00 in
01:37 67.6 °F 67.1 °F 29.82 in Calm   2.0 mph 98 % 0.00 in
01:42 67.6 °F 67.1 °F 29.82 in Calm   2.0 mph 98 % 0.00 in
01:47 67.6 °F 67.1 °F 29.82 in Calm   2.0 mph 98 % 0.00 in
01:52 67.8 °F 67.3 °F 29.81 in ESE 1.0 mph 2.0 mph 98 % 0.00 in
01:57 67.8 °F 67.3 °F 29.81 in ESE 2.0 mph 3.0 mph 98 % 0.00 in
02:02 67.8 °F 67.3 °F 29.81 in Calm   3.0 mph 98 % 0.00 in
02:07 67.8 °F 67.3 °F 29.81 in ESE 1.0 mph 3.0 mph 98 % 0.00 in
02:12 67.8 °F 67.3 °F 29.81 in Calm   2.0 mph 98 % 0.00 in
02:17 68.0 °F 67.6 °F 29.81 in Calm   1.0 mph 99 % 0.00 in
02:22 68.2 °F 67.8 °F 29.80 in Calm   1.0 mph 99 % 0.00 in
02:27 68.0 °F 67.6 °F 29.80 in ESE 1.0 mph 1.0 mph 99 % 0.00 in
02:32 68.2 °F 67.8 °F 29.80 in Calm   1.0 mph 99 % 0.00 in
02:37 68.2 °F 67.8 °F 29.80 in Calm   1.0 mph 99 % 0.00 in
02:42 68.4 °F 68.0 °F 29.80 in Calm   2.0 mph 99 % 0.00 in
02:47 68.5 °F 68.2 °F 29.79 in Calm   2.0 mph 99 % 0.00 in
02:52 68.5 °F 68.2 °F 29.79 in ESE 1.0 mph 3.0 mph 99 % 0.00 in
02:57 68.7 °F 68.4 °F 29.79 in Calm   3.0 mph 99 % 0.00 in
03:02 68.7 °F 68.4 °F 29.79 in Calm   3.0 mph 99 % 0.00 in
03:07 69.1 °F 68.7 °F 29.78 in SE 1.0 mph 3.0 mph 99 % 0.00 in
03:12 69.1 °F 68.7 °F 29.78 in East 1.0 mph 3.0 mph 99 % 0.00 in
03:17 69.1 °F 68.7 °F 29.78 in SE 2.0 mph 3.0 mph 99 % 0.00 in
03:22 69.3 °F 68.9 °F 29.78 in ESE 1.0 mph 3.0 mph 99 % 0.00 in
03:27 69.3 °F 68.9 °F 29.78 in Calm   3.0 mph 99 % 0.00 in
03:33 69.4 °F 69.1 °F 29.78 in East 2.0 mph 3.0 mph 99 % 0.00 in
03:38 69.6 °F 69.3 °F 29.78 in SE 1.0 mph 3.0 mph 99 % 0.00 in
03:43 69.8 °F 69.4 °F 29.78 in East 4.0 mph 4.0 mph 99 % 0.00 in
03:48 70.2 °F 69.8 °F 29.77 in SE 1.0 mph 5.0 mph 99 % 0.00 in
03:53 70.3 °F 70.0 °F 29.77 in SE 2.0 mph 5.0 mph 99 % 0.00 in
03:58 70.5 °F 70.2 °F 29.77 in SSE 2.0 mph 5.0 mph 99 % 0.00 in
04:03 70.7 °F 70.3 °F 29.77 in SSE 2.0 mph 5.0 mph 99 % 0.00 in
04:08 70.9 °F 70.5 °F 29.77 in SE 2.0 mph 5.0 mph 99 % 0.00 in
04:13 70.9 °F 70.5 °F 29.76 in SE 2.0 mph 5.0 mph 99 % 0.00 in
04:18 70.9 °F 70.5 °F 29.76 in ESE 3.0 mph 5.0 mph 99 % 0.00 in
04:23 71.1 °F 70.7 °F 29.76 in ESE 3.0 mph 6.0 mph 99 % 0.00 in
04:28 71.1 °F 70.7 °F 29.75 in ESE 4.0 mph 6.0 mph 99 % 0.00 in
04:33 71.2 °F 70.9 °F 29.75 in SE 2.0 mph 10.0 mph 99 % 0.00 in
04:38 71.2 °F 70.9 °F 29.75 in East 1.0 mph 10.0 mph 99 % 0.00 in
04:43 71.4 °F 71.1 °F 29.74 in East 8.0 mph 10.0 mph 99 % 0.00 in
04:48 71.4 °F 71.1 °F 29.75 in SSW 3.0 mph 8.0 mph 99 % 0.00 in
04:53 71.4 °F 71.1 °F 29.76 in SSE 1.0 mph 8.0 mph 99 % 0.00 in
04:58 71.6 °F 71.2 °F 29.75 in SE 2.0 mph 8.0 mph 99 % 0.00 in
05:03 71.8 °F 71.4 °F 29.75 in South 4.0 mph 5.0 mph 99 % 0.00 in
05:08 71.8 °F 71.4 °F 29.76 in South 4.0 mph 7.0 mph 99 % 0.00 in
05:13 72.0 °F 71.6 °F 29.76 in SSE 5.0 mph 7.0 mph 99 % 0.00 in
05:18 72.0 °F 71.6 °F 29.78 in SW 6.0 mph 8.0 mph 99 % 0.00 in
05:23 72.0 °F 71.6 °F 29.78 in SSW 3.0 mph 8.0 mph 99 % 0.01 in
05:28 72.0 °F 71.6 °F 29.77 in Calm   8.0 mph 99 % 0.02 in
05:33 72.0 °F 71.6 °F 29.77 in Calm   8.0 mph 99 % 0.03 in
05:38 72.0 °F 71.6 °F 29.77 in Calm   5.0 mph 99 % 0.05 in
05:43 72.0 °F 71.6 °F 29.78 in SSW 1.0 mph 5.0 mph 99 % 0.07 in
05:44 72.0 °F 71.6 °F 29.78 in SSW 1.0 mph 5.0 mph 99 % 0.07 in
05:49 72.0 °F 71.6 °F 29.79 in SW 3.0 mph 3.0 mph 99 % 0.17 in
05:54 71.8 °F 71.2 °F 29.81 in SSE 4.0 mph 5.0 mph 98 % 0.33 in
05:59 69.3 °F 67.5 °F 29.81 in NNE 10.0 mph 17.0 mph 94 % 0.57 in
06:04 66.9 °F 65.1 °F 29.74 in WSW 6.0 mph 23.0 mph 94 % 0.93 in
06:09 66.4 °F 64.9 °F 29.74 in ESE 9.0 mph 23.0 mph 95 % 0.98 in
06:14 67.5 °F 66.9 °F 29.73 in SE 6.0 mph 23.0 mph 98 % 0.99 in
06:19 69.1 °F 68.5 °F 29.75 in SE 6.0 mph 13.0 mph 98 % 0.99 in
06:24 69.4 °F 68.9 °F 29.75 in SE 5.0 mph 13.0 mph 98 % 0.98 in
06:29 69.4 °F 68.5 °F 29.75 in SSE 3.0 mph 13.0 mph 97 % 0.97 in
06:34 69.4 °F 68.5 °F 29.75 in SSE 1.0 mph 12.0 mph 97 % 0.96 in
06:39 69.3 °F 68.4 °F 29.75 in SE 1.0 mph 7.0 mph 97 % 0.94 in
06:44 69.3 °F 68.4 °F 29.75 in ESE 1.0 mph 5.0 mph 97 % 0.92 in
06:49 69.3 °F 68.4 °F 29.74 in SE 3.0 mph 4.0 mph 97 % 0.82 in
06:54 69.3 °F 68.7 °F 29.74 in SE 2.0 mph 4.0 mph 98 % 0.64 in
06:59 69.6 °F 69.1 °F 29.73 in SE 3.0 mph 5.0 mph 98 % 0.40 in
07:04 69.8 °F 69.3 °F 29.74 in SE 2.0 mph 6.0 mph 98 % 0.04 in
07:09 70.2 °F 69.6 °F 29.74 in ESE 2.0 mph 6.0 mph 98 % 0.01 in
07:14 70.3 °F 69.8 °F 29.74 in ESE 3.0 mph 6.0 mph 98 % 0.00 in
07:19 70.7 °F 70.2 °F 29.75 in SSE 3.0 mph 5.0 mph 98 % 0.00 in
07:24 70.9 °F 70.3 °F 29.75 in Calm   6.0 mph 98 % 0.00 in
07:29 71.1 °F 70.7 °F 29.77 in Calm   6.0 mph 99 % 0.00 in
07:34 71.2 °F 70.9 °F 29.77 in Calm   6.0 mph 99 % 0.00 in
07:39 71.4 °F 70.9 °F 29.78 in SSW 3.0 mph 9.0 mph 98 % 0.00 in
07:44 71.4 °F 71.1 °F 29.77 in SSE 1.0 mph 9.0 mph 99 % 0.00 in
07:49 71.4 °F 71.1 °F 29.76 in Calm   9.0 mph 99 % 0.00 in
07:54 71.6 °F 71.2 °F 29.78 in SSW 1.0 mph 4.0 mph 99 % 0.00 in
07:59 71.4 °F 70.9 °F 29.81 in NW 19.0 mph 19.0 mph 98 % 0.00 in
08:04 65.5 °F 61.5 °F 29.80 in North 5.0 mph 29.0 mph 87 % 0.00 in
08:09 62.6 °F 59.5 °F 29.85 in NW 8.0 mph 29.0 mph 90 % 0.00 in
08:14 61.2 °F 59.2 °F 29.86 in WNW 8.0 mph 29.0 mph 93 % 0.07 in
08:19 59.9 °F 58.1 °F 29.85 in NNW 13.0 mph 25.0 mph 94 % 0.28 in
08:24 58.8 °F 57.7 °F 29.86 in North 5.0 mph 15.0 mph 96 % 0.48 in
08:29 58.5 °F 57.6 °F 29.86 in NW 4.0 mph 19.0 mph 97 % 0.64 in
08:34 58.3 °F 57.4 °F 29.86 in NW 1.0 mph 19.0 mph 97 % 0.71 in
08:39 57.9 °F 57.4 °F 29.88 in NW 3.0 mph 19.0 mph 98 % 0.75 in
08:44 57.9 °F 57.4 °F 29.88 in Calm   12.0 mph 98 % 0.78 in
08:49 57.9 °F 57.4 °F 29.88 in Calm   12.0 mph 98 % 0.80 in
08:54 57.9 °F 57.4 °F 29.88 in WNW 3.0 mph 7.0 mph 98 % 0.82 in
08:59 57.9 °F 57.4 °F 29.86 in NNW 3.0 mph 7.0 mph 98 % 0.83 in
09:04 57.9 °F 57.4 °F 29.86 in NW 3.0 mph 8.0 mph 98 % 0.88 in
09:09 57.9 °F 57.6 °F 29.86 in NW 3.0 mph 11.0 mph 99 % 0.88 in
09:14 58.1 °F 57.7 °F 29.86 in NNW 3.0 mph 11.0 mph 99 % 0.81 in
09:19 58.3 °F 57.9 °F 29.86 in NNW 1.0 mph 11.0 mph 99 % 0.58 in
09:24 58.3 °F 57.9 °F 29.87 in Calm   6.0 mph 99 % 0.40 in
09:30 58.3 °F 57.9 °F 29.88 in Calm   6.0 mph 99 % 0.23 in
09:35 58.3 °F 57.9 °F 29.88 in North 2.0 mph 5.0 mph 99 % 0.17 in
09:40 58.5 °F 58.1 °F 29.88 in North 2.0 mph 5.0 mph 99 % 0.13 in
09:45 58.5 °F 58.1 °F 29.88 in NNE 1.0 mph 5.0 mph 99 % 0.08 in
09:50 58.6 °F 58.3 °F 29.88 in North 1.0 mph 5.0 mph 99 % 0.06 in
09:55 58.6 °F 58.3 °F 29.87 in NW 1.0 mph 4.0 mph 99 % 0.05 in
10:00 58.8 °F 58.5 °F 29.87 in NW 1.0 mph 4.0 mph 99 % 0.00 in
10:05 59.0 °F 58.6 °F 29.88 in NW 2.0 mph 4.0 mph 99 % 0.00 in
10:10 59.5 °F 59.2 °F 29.88 in WNW 2.0 mph 4.0 mph 99 % 0.00 in
10:15 59.5 °F 59.2 °F 29.88 in Calm   4.0 mph 99 % 0.00 in
10:20 60.3 °F 59.9 °F 29.89 in NNW 3.0 mph 4.0 mph 99 % 0.00 in
10:25 60.3 °F 59.9 °F 29.89 in WNW 1.0 mph 4.0 mph 99 % 0.00 in
10:30 60.8 °F 60.4 °F 29.89 in North 2.0 mph 5.0 mph 99 % 0.00 in
10:35 61.0 °F 60.6 °F 29.89 in NW 4.0 mph 6.0 mph 99 % 0.00 in
10:40 61.2 °F 60.8 °F 29.89 in WNW 1.0 mph 6.0 mph 99 % 0.00 in
10:45 61.3 °F 60.8 °F 29.89 in NW 2.0 mph 6.0 mph 98 % 0.00 in
10:50 61.2 °F 60.3 °F 29.89 in NW 3.0 mph 7.0 mph 97 % 0.00 in
10:55 61.2 °F 60.3 °F 29.89 in NW 1.0 mph 7.0 mph 97 % 0.00 in
11:00 61.5 °F 60.4 °F 29.90 in West 3.0 mph 7.0 mph 96 % 0.00 in
11:05 62.2 °F 61.3 °F 29.90 in WNW 2.0 mph 6.0 mph 97 % 0.00 in
11:10 62.8 °F 61.0 °F 29.90 in NNW 2.0 mph 6.0 mph 94 % 0.00 in
11:15 63.3 °F 61.3 °F 29.89 in WNW 1.0 mph 6.0 mph 93 % 0.00 in
11:20 64.0 °F 61.3 °F 29.89 in NW 3.0 mph 5.0 mph 91 % 0.00 in
11:25 64.8 °F 61.5 °F 29.88 in Calm   5.0 mph 89 % 0.00 in
11:30 65.5 °F 61.9 °F 29.88 in SSW 1.0 mph 5.0 mph 88 % 0.00 in
11:31 65.7 °F 62.1 °F 29.88 in NW 2.0 mph 5.0 mph 88 % 0.00 in
11:36 66.2 °F 61.9 °F 29.88 in Calm   5.0 mph 86 % 0.00 in
11:41 66.7 °F 61.3 °F 29.88 in Calm   4.0 mph 83 % 0.00 in
11:46 67.5 °F 61.3 °F 29.88 in NW 3.0 mph 6.0 mph 81 % 0.00 in
11:51 67.8 °F 61.0 °F 29.88 in NNE 1.0 mph 7.0 mph 79 % 0.00 in
11:56 68.2 °F 59.9 °F 29.88 in NNW 3.0 mph 7.0 mph 75 % 0.00 in
12:01 68.5 °F 60.3 °F 29.88 in NNW 3.0 mph 9.0 mph 75 % 0.00 in
12:06 68.5 °F 59.5 °F 29.87 in NNW 3.0 mph 9.0 mph 73 % 0.00 in
12:11 68.9 °F 59.5 °F 29.87 in West 3.0 mph 10.0 mph 72 % 0.00 in
12:17 69.1 °F 60.4 °F 29.87 in WNW 3.0 mph 10.0 mph 74 % 0.00 in
12:22 69.3 °F 60.3 °F 29.87 in WSW 2.0 mph 10.0 mph 73 % 0.00 in
12:27 69.6 °F 59.7 °F 29.87 in Calm   9.0 mph 71 % 0.00 in
12:32 70.2 °F 60.3 °F 29.86 in WSW 3.0 mph 6.0 mph 71 % 0.00 in
12:37 70.2 °F 60.6 °F 29.86 in NNW 3.0 mph 8.0 mph 72 % 0.00 in
12:42 70.5 °F 61.0 °F 29.86 in SW 2.0 mph 8.0 mph 72 % 0.00 in
12:47 70.9 °F 60.3 °F 29.86 in WNW 3.0 mph 8.0 mph 69 % 0.00 in
12:52 71.2 °F 61.7 °F 29.86 in WNW 2.0 mph 8.0 mph 72 % 0.00 in
12:57 71.4 °F 60.8 °F 29.86 in Calm   8.0 mph 69 % 0.00 in
13:02 71.8 °F 60.6 °F 29.85 in WNW 3.0 mph 8.0 mph 68 % 0.00 in
13:07 72.1 °F 61.9 °F 29.85 in SSW 4.0 mph 6.0 mph 70 % 0.00 in
13:12 72.5 °F 60.4 °F 29.85 in WSW 2.0 mph 6.0 mph 66 % 0.00 in
13:17 72.7 °F 59.7 °F 29.85 in NE 2.0 mph 9.0 mph 64 % 0.00 in
13:22 72.7 °F 57.6 °F 29.85 in NW 3.0 mph 9.0 mph 59 % 0.00 in
13:27 72.0 °F 58.6 °F 29.85 in Calm   9.0 mph 63 % 0.00 in
13:32 72.7 °F 58.8 °F 29.85 in WSW 3.0 mph 8.0 mph 62 % 0.00 in
13:37 73.0 °F 59.2 °F 29.85 in WSW 5.0 mph 8.0 mph 62 % 0.00 in
13:42 72.9 °F 57.7 °F 29.84 in West 7.0 mph 12.0 mph 59 % 0.00 in
13:47 72.9 °F 56.7 °F 29.85 in West 3.0 mph 12.0 mph 57 % 0.00 in
13:52 73.2 °F 57.6 °F 29.84 in Calm   12.0 mph 58 % 0.00 in
13:57 73.2 °F 58.5 °F 29.84 in Calm   8.0 mph 60 % 0.00 in
14:02 73.6 °F 57.9 °F 29.84 in SW 1.0 mph 6.0 mph 58 % 0.00 in
14:07 73.6 °F 57.4 °F 29.84 in NW 4.0 mph 7.0 mph 57 % 0.00 in
14:12 73.0 °F 57.9 °F 29.84 in SSW 3.0 mph 7.0 mph 59 % 0.00 in
14:17 73.6 °F 56.5 °F 29.84 in NW 3.0 mph 7.0 mph 55 % 0.00 in
14:22 73.2 °F 56.1 °F 29.84 in NNW 5.0 mph 7.0 mph 55 % 0.00 in
14:27 73.2 °F 56.7 °F 29.84 in NW 6.0 mph 10.0 mph 56 % 0.00 in
14:32 72.9 °F 56.3 °F 29.83 in North 3.0 mph 10.0 mph 56 % 0.00 in
14:37 72.9 °F 56.7 °F 29.84 in NNW 3.0 mph 10.0 mph 57 % 0.00 in
14:42 73.0 °F 56.8 °F 29.83 in West 3.0 mph 8.0 mph 57 % 0.00 in
14:47 73.6 °F 56.8 °F 29.83 in Calm   8.0 mph 56 % 0.00 in
14:52 73.8 °F 58.1 °F 29.83 in SW 2.0 mph 5.0 mph 58 % 0.00 in
14:57 73.9 °F 57.2 °F 29.83 in West 2.0 mph 5.0 mph 56 % 0.00 in
15:02 73.8 °F 56.7 °F 29.83 in West 1.0 mph 5.0 mph 55 % 0.00 in
15:07 73.9 °F 58.3 °F 29.83 in West 1.0 mph 4.0 mph 58 % 0.00 in
15:12 74.1 °F 57.9 °F 29.83 in SSW 1.0 mph 5.0 mph 57 % 0.00 in
15:17 74.5 °F 57.2 °F 29.83 in Calm   5.0 mph 55 % 0.00 in
15:22 74.7 °F 56.8 °F 29.83 in WSW 1.0 mph 5.0 mph 54 % 0.00 in
15:27 74.7 °F 56.5 °F 29.83 in North 2.0 mph 4.0 mph 53 % 0.00 in
15:33 74.7 °F 55.9 °F 29.83 in West 1.0 mph 4.0 mph 52 % 0.00 in
15:38 74.7 °F 55.9 °F 29.82 in WNW 1.0 mph 4.0 mph 52 % 0.00 in
15:43 74.7 °F 56.5 °F 29.83 in Calm   4.0 mph 53 % 0.00 in
15:48 74.7 °F 56.5 °F 29.83 in SSW 2.0 mph 4.0 mph 53 % 0.00 in
15:53 74.7 °F 56.8 °F 29.83 in Calm   6.0 mph 54 % 0.00 in
15:58 74.5 °F 57.2 °F 29.83 in SW 1.0 mph 6.0 mph 55 % 0.00 in
16:03 74.7 °F 57.9 °F 29.83 in South 1.0 mph 6.0 mph 56 % 0.00 in
16:08 74.8 °F 58.1 °F 29.83 in SSW 2.0 mph 6.0 mph 56 % 0.00 in
16:13 74.8 °F 57.0 °F 29.84 in SSW 1.0 mph 4.0 mph 54 % 0.00 in
16:18 74.7 °F 56.8 °F 29.84 in SW 2.0 mph 5.0 mph 54 % 0.00 in
16:23 74.5 °F 57.2 °F 29.84 in WSW 1.0 mph 5.0 mph 55 % 0.00 in
16:28 74.1 °F 57.4 °F 29.84 in SW 2.0 mph 6.0 mph 56 % 0.00 in
16:33 73.9 °F 57.2 °F 29.84 in SW 1.0 mph 6.0 mph 56 % 0.00 in
16:38 73.6 °F 56.5 °F 29.84 in WSW 2.0 mph 6.0 mph 55 % 0.00 in
16:43 73.2 °F 56.1 °F 29.85 in West 1.0 mph 5.0 mph 55 % 0.00 in
16:48 73.0 °F 55.9 °F 29.85 in SSW 1.0 mph 5.0 mph 55 % 0.00 in
16:53 72.9 °F 56.3 °F 29.85 in West 1.0 mph 5.0 mph 56 % 0.00 in
16:58 72.7 °F 56.5 °F 29.85 in Calm   5.0 mph 57 % 0.00 in
17:03 72.3 °F 56.3 °F 29.85 in SW 2.0 mph 5.0 mph 57 % 0.00 in
17:08 71.4 °F 56.3 °F 29.86 in SW 1.0 mph 5.0 mph 59 % 0.00 in
17:13 71.1 °F 55.9 °F 29.85 in SSW 1.0 mph 3.0 mph 59 % 0.00 in
17:18 70.3 °F 56.3 °F 29.85 in Calm   3.0 mph 61 % 0.00 in
17:23 70.0 °F 56.3 °F 29.85 in SSW 1.0 mph 3.0 mph 62 % 0.00 in
17:28 69.4 °F 56.3 °F 29.85 in Calm   4.0 mph 63 % 0.00 in
17:33 68.7 °F 56.1 °F 29.85 in Calm   4.0 mph 64 % 0.00 in
17:38 68.2 °F 55.9 °F 29.85 in Calm   4.0 mph 65 % 0.00 in
17:43 67.5 °F 55.2 °F 29.86 in Calm   1.0 mph 65 % 0.00 in
17:48 66.7 °F 55.4 °F 29.86 in Calm     67 % 0.00 in
17:53 66.4 °F 55.6 °F 29.86 in Calm     68 % 0.00 in
17:58 65.7 °F 55.2 °F 29.86 in Calm     69 % 0.00 in
18:03 64.9 °F 54.9 °F 29.86 in Calm     70 % 0.00 in
18:08 64.6 °F 55.8 °F 29.86 in Calm     73 % 0.00 in
18:13 64.0 °F 55.2 °F 29.86 in Calm     73 % 0.00 in
18:18 63.7 °F 55.2 °F 29.86 in Calm     74 % 0.00 in
18:23 63.1 °F 54.7 °F 29.86 in Calm     74 % 0.00 in
18:28 62.8 °F 55.0 °F 29.86 in Calm     76 % 0.00 in
18:33 62.2 °F 55.2 °F 29.86 in Calm     78 % 0.00 in
18:38 61.9 °F 55.2 °F 29.86 in Calm     79 % 0.00 in
18:43 61.3 °F 54.9 °F 29.86 in Calm     79 % 0.00 in
18:48 61.0 °F 55.0 °F 29.86 in Calm     81 % 0.00 in
18:53 60.8 °F 55.9 °F 29.86 in Calm     84 % 0.00 in
18:58 60.8 °F 55.9 °F 29.87 in Calm     84 % 0.00 in
19:03 60.4 °F 55.6 °F 29.87 in Calm     84 % 0.00 in
19:08 60.3 °F 55.4 °F 29.88 in Calm     84 % 0.00 in
19:13 60.1 °F 55.9 °F 29.87 in Calm     86 % 0.00 in
19:18 60.1 °F 55.9 °F 29.87 in Calm     86 % 0.00 in
19:23 59.9 °F 55.8 °F 29.88 in Calm     86 % 0.00 in
19:28 59.5 °F 55.4 °F 29.88 in Calm     86 % 0.00 in
19:33 59.2 °F 55.4 °F 29.88 in Calm     87 % 0.00 in
19:38 59.0 °F 55.2 °F 29.88 in Calm     87 % 0.00 in
19:44 59.0 °F 55.4 °F 29.88 in Calm     88 % 0.00 in
19:49 58.8 °F 55.2 °F 29.88 in Calm     88 % 0.00 in
19:54 58.5 °F 54.9 °F 29.88 in Calm     88 % 0.00 in
19:59 58.1 °F 54.9 °F 29.88 in Calm     89 % 0.00 in
20:04 57.7 °F 54.5 °F 29.88 in Calm     89 % 0.00 in
20:09 57.6 °F 54.7 °F 29.88 in Calm     90 % 0.00 in
20:14 57.6 °F 55.0 °F 29.88 in Calm     91 % 0.00 in
20:19 57.7 °F 55.2 °F 29.89 in Calm   1.0 mph 91 % 0.00 in
20:24 57.6 °F 54.7 °F 29.90 in Calm   1.0 mph 90 % 0.00 in
20:29 57.4 °F 54.9 °F 29.90 in Calm   1.0 mph 91 % 0.00 in
20:34 57.2 °F 54.9 °F 29.91 in Calm     92 % 0.00 in
20:39 57.4 °F 55.0 °F 29.91 in Calm     92 % 0.00 in
20:44 57.6 °F 55.2 °F 29.91 in Calm     92 % 0.00 in
20:49 57.4 °F 54.9 °F 29.92 in Calm     91 % 0.00 in
20:54 56.8 °F 54.3 °F 29.92 in Calm     91 % 0.00 in
20:59 56.8 °F 54.5 °F 29.92 in Calm     92 % 0.00 in
21:04 56.7 °F 54.3 °F 29.92 in Calm     92 % 0.00 in
21:09 56.7 °F 54.3 °F 29.92 in Calm     92 % 0.00 in
21:14 56.5 °F 54.0 °F 29.92 in Calm     91 % 0.00 in
21:19 56.3 °F 53.8 °F 29.92 in Calm     91 % 0.00 in
21:22 56.1 °F 53.6 °F 29.92 in Calm     91 % 0.00 in
21:27 55.9 °F 53.6 °F 29.92 in Calm     92 % 0.00 in
21:32 56.5 °F 54.5 °F 29.92 in Calm     93 % 0.00 in
21:37 56.7 °F 54.3 °F 29.92 in Calm     92 % 0.00 in
21:42 56.5 °F 54.1 °F 29.93 in Calm     92 % 0.00 in
21:47 56.3 °F 54.0 °F 29.93 in Calm     92 % 0.00 in
21:52 56.1 °F 53.6 °F 29.93 in Calm     91 % 0.00 in
21:57 56.1 °F 53.8 °F 29.93 in Calm     92 % 0.00 in
22:02 56.1 °F 53.6 °F 29.93 in Calm   1.0 mph 91 % 0.00 in
22:07 55.9 °F 53.6 °F 29.92 in Calm   1.0 mph 92 % 0.00 in
22:12 55.9 °F 53.6 °F 29.93 in Calm   1.0 mph 92 % 0.00 in
22:17 55.9 °F 53.6 °F 29.92 in Calm   1.0 mph 92 % 0.00 in
22:22 55.8 °F 53.4 °F 29.92 in Calm     92 % 0.00 in
22:27 55.6 °F 53.2 °F 29.92 in Calm     92 % 0.00 in
22:32 55.2 °F 52.9 °F 29.92 in Calm     92 % 0.00 in
22:37 55.0 °F 53.1 °F 29.92 in Calm     93 % 0.00 in
22:42 55.0 °F 53.1 °F 29.93 in Calm     93 % 0.00 in
22:47 54.7 °F 52.3 °F 29.93 in Calm     92 % 0.00 in
22:52 54.7 °F 52.7 °F 29.92 in Calm     93 % 0.00 in
22:57 54.9 °F 52.9 °F 29.92 in Calm     93 % 0.00 in
23:02 54.9 °F 52.9 °F 29.93 in Calm     93 % 0.00 in
23:07 54.7 °F 52.7 °F 29.93 in Calm     93 % 0.00 in
23:12 54.7 °F 53.1 °F 29.93 in Calm     94 % 0.00 in
23:17 54.3 °F 52.7 °F 29.93 in Calm     94 % 0.00 in
23:22 54.1 °F 52.5 °F 29.93 in Calm     94 % 0.00 in
23:27 53.8 °F 52.2 °F 29.94 in Calm     94 % 0.00 in
23:32 53.4 °F 51.8 °F 29.93 in Calm     94 % 0.00 in
23:37 53.2 °F 51.6 °F 29.94 in Calm     94 % 0.00 in
23:42 53.2 °F 51.6 °F 29.93 in Calm     94 % 0.00 in
23:47 53.4 °F 52.0 °F 29.94 in Calm     95 % 0.00 in
23:52 53.4 °F 52.0 °F 29.94 in Calm     95 % 0.00 in
23:57 53.2 °F 51.6 °F 29.94 in Calm     94 % 0.00 in
Spring, Texas: Villages of Bridgestone
Compliments of Weather Underground - 2.75 mb

Script developed by  Jim McMurry - jmcmurry@mwt.net Adapted for the template by  Wim van der Kuil - Leuven-Template.eu

You find our weather info also at:

UK Metoffice

WeatherCloud

Weather Underground

Mid-South Weather Network

AWEKAS

Citizen Weather Observer Program (CWOP)

HAMweather, WeatherForYou, PWS Weather

Equipment we use:

Weather-station
Davis Vantage Vue

Weather-program
Meteohub

Weather-server
Debian 7.9 x86 (Guest)

Provider
DreamHost

Davis Vantage Vue

Meteohub

Debian 7.9 x86 (Guest)

DreamHost